Flight Track Log - Related Links

Times and Time Zones

All times are in EDT time to prevent confusion due to time zone crossing. See the SWA2166 flight status page for this flight to view local times or setup timezone preferences in your user account.

Time Position Orientation Groundspeed Altitude Reporting Facility
EDT Latitude Longitude Course Direction KTS MPH feet Rate Location/Type
Thu 10:49:43 AM 41.8000 -87.6833 86° East 184 212 2,300  Level Chicago TRACON
Thu 10:50:43 AM 41.8167 -87.6000 75° East 235 270 3,000 500 Climbing Chicago TRACON
Thu 10:51:07 AM 41.8144 -87.5753 97° East 209 241 3,000 279 Level Chicago Center
Thu 10:52:09 AM 41.8044 -87.4922 99° East 220 253 3,400 1,694 Climbing Chicago Center
Thu 10:53:11 AM 41.7961 -87.4014 97° East 245 282 6,500 3,659 Climbing Chicago Center
Thu 10:54:12 AM 41.7842 -87.2961 99° East 282 325 10,900 4,195 Climbing Chicago Center
Thu 10:55:00 AM 41.7515 -86.7900 86° East  Level FlightAware Approximate
Thu 10:55:14 AM 41.7717 -87.1569 97° East 314 361 15,100  Level Chicago Center
Thu 10:56:16 AM 41.7617 -87.0250 96° East 355 409 18,200 2,683 Climbing Chicago Center
Thu 10:57:17 AM 41.7636 -86.8750 89° East 399 459 20,600 2,488 Climbing Chicago Center
Thu 10:58:19 AM 41.7656 -86.7128 89° East 434 499 23,300 2,419 Climbing Chicago Center
Thu 10:59:21 AM 41.7669 -86.5544 89° East 452 520 25,600 2,880 Climbing Chicago Center
Thu 11:00:24 AM 41.7686 -86.3497 89° East 459 528 29,300 2,688 Climbing Chicago Center
Thu 11:01:26 AM 41.7919 -86.1783 80° East 475 547 31,200 1,597 Climbing Chicago Center
Thu 11:02:28 AM 41.8219 -85.9978 77° East 492 566 32,600 1,561 Climbing Chicago Center
Thu 11:03:29 AM 41.8389 -85.8103 83° East 505 581 34,400 1,805 Climbing Chicago Center
Thu 11:04:31 AM 41.8542 -85.6197 84° East 508 585 36,300 1,707 Climbing Chicago Center
Thu 11:05:32 AM 41.8700 -85.4278 84° East 512 589 37,900 1,469 Climbing Chicago Center
Thu 11:06:09 AM 41.8833 -85.3114 81° East 520 598 38,700 1,175 Climbing Cleveland Center
Thu 11:07:09 AM 41.8950 -85.1222 85° East 515 593 39,800 1,100 Climbing Cleveland Center
Thu 11:08:09 AM 41.9089 -84.9281 84° East 515 593 40,900 600 Climbing Cleveland Center
Thu 11:09:09 AM 41.9244 -84.7308 84° East 515 593 41,000 50 Climbing Cleveland Center
Thu 11:10:09 AM 41.9381 -84.5222 85° East 515 593 41,000  Level Cleveland Center
Thu 11:11:09 AM 41.9508 -84.3275 85° East 515 593 41,000  Level Cleveland Center
Thu 11:12:09 AM 41.9614 -84.1297 86° East 515 593 41,000  Level Cleveland Center
Thu 11:13:09 AM 41.9733 -83.9378 85° East 515 593 41,000  Level Cleveland Center
Thu 11:14:09 AM 41.9872 -83.7428 84° East 515 593 41,000  Level Cleveland Center
Thu 11:15:09 AM 41.9986 -83.5533 85° East 515 593 41,000  Level Cleveland Center
Thu 11:16:09 AM 42.0097 -83.3611 85° East 515 593 41,000  Level Cleveland Center
Thu 11:17:09 AM 42.0206 -83.1658 86° East 515 593 41,000  Level Cleveland Center
Thu 11:18:09 AM 42.0331 -82.9761 85° East 515 593 41,000  Level Cleveland Center
Thu 11:19:09 AM 42.0431 -82.7808 86° East 515 593 41,000  Level Cleveland Center
Thu 11:20:09 AM 42.0508 -82.5908 87° East 515 593 41,000  Level Cleveland Center
Thu 11:21:09 AM 42.0622 -82.3983 85° East 515 593 41,000  Level Cleveland Center
Thu 11:22:09 AM 42.0672 -82.2056 88° East 497 572 41,000  Level Cleveland Center
Thu 11:23:09 AM 42.0825 -82.0100 84° East 515 593 41,000  Level Cleveland Center
Thu 11:24:09 AM 42.0931 -81.8172 86° East 515 593 41,000  Level Cleveland Center
Thu 11:25:09 AM 42.0992 -81.6242 87° East 515 593 41,000  Level Cleveland Center
Thu 11:26:09 AM 42.1111 -81.4283 85° East 515 593 41,000  Level Cleveland Center
Thu 11:27:09 AM 42.1206 -81.2494 86° East 522 601 41,000  Level Cleveland Center
Thu 11:28:09 AM 42.1300 -81.0592 86° East 514 592 41,000 50 Level Cleveland Center
Thu 11:29:09 AM 42.1347 -80.8658 88° East 514 592 41,100  Climbing Cleveland Center
Thu 11:30:09 AM 42.1350 -80.6503 90° East 514 592 41,000 -50 Descending Cleveland Center
Thu 11:31:09 AM 42.1328 -80.4572 91° East 514 592 41,000  Level Cleveland Center
Thu 11:32:09 AM 42.1347 -80.2864 89° East 514 592 41,000  Level Cleveland Center
Thu 11:33:09 AM 42.1361 -80.0931 89° East 514 592 41,000  Level Cleveland Center
Thu 11:34:09 AM 42.1394 -79.9111 89° East 497 572 41,000  Level Cleveland Center
Thu 11:35:09 AM 42.1381 -79.7181 90° East 497 572 41,000  Level Cleveland Center
Thu 11:36:09 AM 42.1386 -79.5275 90° East 497 572 41,000  Level Cleveland Center
Thu 11:37:09 AM 42.1408 -79.3342 89° East 497 572 41,000  Level Cleveland Center
Thu 11:38:09 AM 42.1406 -79.1411 90° East 502 578 41,000  Level Cleveland Center
Thu 11:39:09 AM 42.1381 -78.9481 91° East 512 589 41,000  Level Cleveland Center
Thu 11:40:09 AM 42.1372 -78.7575 90° East 512 589 41,000  Level Cleveland Center
Thu 11:41:09 AM 42.1361 -78.5644 90° East 512 589 41,000  Level Cleveland Center
Thu 11:42:09 AM 42.1328 -78.3739 91° East 512 589 41,000  Level Cleveland Center
Thu 11:44:16 AM 42.1258 -77.9711 91° East 519 597 41,000  Level New York Center
Thu 11:45:16 AM 42.1247 -77.7808 90° East 519 597 41,000  Level New York Center
Thu 11:47:13 AM 42.1208 -77.4011 91° East 524 603 41,000  Level Boston Center
Thu 11:48:12 AM 42.1144 -77.2100 93° East 519 597 41,000  Level Boston Center
Thu 11:49:10 AM 42.1117 -77.0222 91° East 514 592 41,000  Level Boston Center
Thu 11:50:11 AM 42.1069 -76.8314 92° East 514 592 41,000  Level Boston Center
Thu 11:51:11 AM 42.1036 -76.6408 91° East 509 586 41,000  Level Boston Center
Thu 11:52:10 AM 42.1017 -76.4700 91° East 509 586 41,000  Level Boston Center
Thu 11:53:10 AM 42.0958 -76.2764 92° East 509 586 41,000  Level Boston Center
Thu 11:54:23 AM 42.0917 -76.0858 92° East 514 592 41,000  Level Boston Center
Thu 11:55:24 AM 42.0842 -75.8589 92° East 514 592 41,000  Level Boston Center
Thu 11:56:24 AM 42.0794 -75.6656 92° East 514 592 41,000 -100 Level Boston Center
Thu 11:57:24 AM 42.0825 -75.4808 89° East 509 586 40,800 -610 Descending Boston Center
Thu 11:58:22 AM 42.0997 -75.2942 83° East 502 578 39,800 -1,513 Descending Boston Center
Thu 11:59:23 AM 42.1150 -75.0989 84° East 495 570 37,800 -2,182 Descending Boston Center
Thu 12:00:23 PM 42.1317 -74.9150 83° East 490 564 35,400 -2,380 Descending Boston Center
Thu 12:01:24 PM 42.1481 -74.7281 83° East 490 564 33,000 -2,164 Descending Boston Center
Thu 12:02:25 PM 42.1597 -74.5547 85° East 479 551 31,000 -1,983 Descending Boston Center
Thu 12:03:22 PM 42.1753 -74.3900 83° East 465 535 29,100 -1,119 Descending Boston Center
Thu 12:04:23 PM 42.1883 -74.2250 84° East 446 513 28,800 -645 Descending Boston Center
Thu 12:05:23 PM 42.2033 -74.0600 83° East 441 507 27,800 -928 Descending Boston Center
Thu 12:07:24 PM 42.2239 -73.7661 85° East 441 507 26,000 -1,006 Descending Boston Center
Thu 12:08:22 PM 42.2406 -73.5589 84° East 453 521 24,800 -1,119 Descending Boston Center
Thu 12:09:22 PM 42.2525 -73.3967 84° East 445 512 23,800 -992 Descending Boston Center
Thu 12:10:23 PM 42.2183 -73.2558 108° East 410 472 22,800 -1,488 Descending Boston Center
Thu 12:11:23 PM 42.1525 -73.1261 124° Southeast 396 456 20,800 -2,281 Descending Boston Center
Thu 12:12:24 PM 42.0925 -73.0081 124° Southeast 411 473 18,200 -1,412 Descending Boston Center
Thu 12:13:22 PM 42.0181 -72.8703 126° Southeast 419 482 18,000 -102 Descending Boston Center
Thu 12:14:22 PM 41.9539 -72.7472 125° Southeast 419 482 18,000 -175 Level Boston Center
Thu 12:15:05 PM 41.9083 -72.6519 123° Southeast 410 472 17,700 -448 Descending Boston Center
Thu 12:15:29 PM 41.8833 -72.6047 125° Southeast 405 466 17,500 -923 Descending Boston Center
Thu 12:16:23 PM 41.8272 -72.4986 125° Southeast 403 464 16,500 -1,409 Descending Boston Center
Thu 12:17:24 PM 41.7669 -72.3900 127° Southeast 403 464 14,800 -1,966 Descending Boston Center
Thu 12:18:22 PM 41.7019 -72.2594 124° Southeast 397 457 12,600 -1,916 Descending Boston Center
Thu 12:19:23 PM 41.6414 -72.1483 126° Southeast 382 440 11,000 -1,247 Descending Boston Center
Thu 12:19:39 PM 41.6247 -72.1208 129° Southeast 355 409 11,000 -1,180 Level Boston Center
Thu 12:20:24 PM 41.5847 -72.0489 127° Southeast 357 411 9,800 -1,800 Descending Boston Center
Thu 12:20:39 PM 41.5681 -72.0267 135° Southeast 329 379 9,200 -2,160 Descending Boston Center
Thu 12:21:39 PM 41.5258 -71.9189 118° Southeast 325 374 7,100 -1,884 Descending Boston Center
Thu 12:22:40 PM 41.4900 -71.8111 114° Southeast 321 369 5,400 -1,538 Descending Boston Center
Thu 12:23:36 PM 41.4811 -71.7114 97° East 292 336 4,100 -1,033 Descending Boston Center
Thu 12:24:42 PM 41.5117 -71.6167 67° East 242 278 3,300 -661 Descending Boston Center
Thu 12:25:43 PM 41.5592 -71.5689 37° Northeast 206 237 2,700 -645 Descending Boston Center
Thu 12:26:43 PM 41.5944 -71.5381 33° Northeast 158 182 2,000 -347 Descending Boston Center
Thu 12:27:44 PM 41.6233 -71.5125 33° Northeast 118 136 2,000 -198 Level Boston Center
Thu 12:28:44 PM 41.6483 -71.4900 34° Northeast 116 133 1,600 -545 Descending Boston Center
Thu 12:29:45 PM 41.6772 -71.4672 30° Northeast 121 139 900 -645 Descending Boston Center
Thu 12:30:45 PM 41.7061 -71.4447 30° Northeast 116 133 300 -600 Descending Boston Center

Login

Don't have an account? Register now (free) for customized features, flight alerts, and more!